createdAt,value
2018-07-21T00:00:57.907Z,7.40
2018-07-21T00:01:57.899Z,8.10
2018-07-21T00:02:57.888Z,7.90
2018-07-21T00:03:57.889Z,7.40
2018-07-21T00:04:57.864Z,7.30
2018-07-21T00:05:57.863Z,8.00
2018-07-21T00:06:57.841Z,7.20
2018-07-21T00:07:57.829Z,7.60
2018-07-21T00:08:57.836Z,7.50
2018-07-21T00:09:57.807Z,7.30
2018-07-21T00:10:57.798Z,7.40
2018-07-21T00:11:57.784Z,7.30
2018-07-21T00:12:57.774Z,7.30
2018-07-21T00:13:57.765Z,7.60
2018-07-21T00:14:57.778Z,7.50
2018-07-21T00:15:57.747Z,7.20
2018-07-21T00:16:57.735Z,7.70
2018-07-21T00:17:57.725Z,7.90
2018-07-21T00:18:57.714Z,7.30
2018-07-21T00:19:57.703Z,7.10
2018-07-21T00:20:57.704Z,7.40
2018-07-21T00:21:57.678Z,7.60
2018-07-21T00:22:57.687Z,7.10
2018-07-21T00:23:57.659Z,7.00
2018-07-21T00:24:57.651Z,7.20
2018-07-21T00:25:57.653Z,7.30
2018-07-21T00:26:57.630Z,7.70
2018-07-21T00:27:57.629Z,7.30
2018-07-21T00:28:57.606Z,7.10
2018-07-21T00:29:57.599Z,7.50
2018-07-21T00:30:57.615Z,7.00
2018-07-21T00:31:57.598Z,6.60
2018-07-21T00:32:57.563Z,7.00
2018-07-21T00:33:57.571Z,7.10
2018-07-21T00:34:57.544Z,7.00
2018-07-21T00:35:57.536Z,7.60
2018-07-21T00:36:57.527Z,7.50
2018-07-21T00:37:57.534Z,7.50
2018-07-21T00:38:57.503Z,6.90
2018-07-21T00:39:57.490Z,6.90
2018-07-21T00:40:57.484Z,6.80
2018-07-21T00:41:57.469Z,6.90
2018-07-21T00:42:57.459Z,6.60
2018-07-21T00:43:57.462Z,6.90
2018-07-21T00:44:57.442Z,7.00
2018-07-21T00:45:57.468Z,7.20
2018-07-21T00:46:57.416Z,6.70
2018-07-21T00:47:57.407Z,7.20
2018-07-21T00:48:57.397Z,7.50
2018-07-21T00:49:57.386Z,6.30
2018-07-21T00:50:57.376Z,6.70
2018-07-21T00:51:57.380Z,7.10
2018-07-21T00:52:57.357Z,6.80
2018-07-21T00:53:57.343Z,6.90
2018-07-21T00:54:57.335Z,7.50
2018-07-21T00:55:57.326Z,7.00
2018-07-21T00:56:57.329Z,7.00
2018-07-21T00:57:57.305Z,6.90
2018-07-21T00:58:57.303Z,7.00
2018-07-21T00:59:57.284Z,7.00
2018-07-21T01:00:57.273Z,6.90
2018-07-21T01:01:57.273Z,7.00
2018-07-21T01:02:57.249Z,7.20
2018-07-21T01:03:57.238Z,6.80
2018-07-21T01:04:57.238Z,6.70
2018-07-21T01:05:57.220Z,7.60
2018-07-21T01:06:57.207Z,7.30
2018-07-21T01:07:57.221Z,7.70
2018-07-21T01:08:57.188Z,7.20
2018-07-21T01:09:57.178Z,6.50
2018-07-21T01:10:57.167Z,7.30
2018-07-21T01:11:57.157Z,7.20
2018-07-21T01:12:57.144Z,7.90
2018-07-21T01:13:57.150Z,7.30
2018-07-21T01:14:57.127Z,7.20
2018-07-21T01:15:57.116Z,7.50
2018-07-21T01:16:57.103Z,7.80
2018-07-21T01:17:57.091Z,8.50
2018-07-21T01:18:57.083Z,7.40
2018-07-21T01:19:57.088Z,7.20
2018-07-21T01:20:57.063Z,7.70
2018-07-21T01:21:57.055Z,7.90
2018-07-21T01:22:57.041Z,8.00
2018-07-21T01:23:57.030Z,7.80
2018-07-21T01:24:57.039Z,8.70
2018-07-21T01:25:57.007Z,9.00
2018-07-21T01:26:56.997Z,9.10
2018-07-21T01:27:56.982Z,8.90
2018-07-21T01:28:56.972Z,9.30
2018-07-21T01:29:56.964Z,9.20
2018-07-21T01:30:56.968Z,9.20
2018-07-21T01:31:56.945Z,9.60
2018-07-21T01:32:56.931Z,9.50
2018-07-21T01:33:56.922Z,9.10
2018-07-21T01:34:56.908Z,8.80
2018-07-21T01:35:56.916Z,9.50
2018-07-21T01:36:56.885Z,9.60
2018-07-21T01:37:56.891Z,9.60
2018-07-21T01:38:56.864Z,10.10
2018-07-21T01:39:56.858Z,9.90
2018-07-21T01:40:56.866Z,9.70
2018-07-21T01:41:56.834Z,10.10
2018-07-21T01:42:56.823Z,9.50
2018-07-21T01:43:56.809Z,9.70
2018-07-21T01:44:56.806Z,9.30
2018-07-21T01:45:56.789Z,9.60
2018-07-21T01:46:56.791Z,9.30
2018-07-21T01:47:56.767Z,9.30
2018-07-21T01:48:56.757Z,8.90
2018-07-21T01:49:56.747Z,9.50
2018-07-21T01:50:56.752Z,9.00
2018-07-21T01:51:56.727Z,9.10
2018-07-21T01:52:56.715Z,9.10
2018-07-21T01:53:56.701Z,8.80
2018-07-21T01:54:56.693Z,8.80
2018-07-21T01:55:56.680Z,8.80
2018-07-21T01:56:56.688Z,8.90
2018-07-21T01:57:56.661Z,8.70
2018-07-21T01:58:56.650Z,9.10
2018-07-21T01:59:56.637Z,8.80
2018-07-21T02:00:56.628Z,8.60
2018-07-21T02:01:56.631Z,9.20
2018-07-21T02:02:56.608Z,8.70
2018-07-21T02:03:56.598Z,8.70
2018-07-21T02:04:56.582Z,8.90
2018-07-21T02:05:56.573Z,8.40
2018-07-21T02:06:56.608Z,8.80
2018-07-21T02:07:56.555Z,9.30
2018-07-21T02:08:56.558Z,8.60
2018-07-21T02:09:56.531Z,8.50
2018-07-21T02:10:56.518Z,8.50
2018-07-21T02:11:56.550Z,8.60
2018-07-21T02:12:56.501Z,8.30
2018-07-21T02:13:56.485Z,7.80
2018-07-21T02:14:56.477Z,8.40
2018-07-21T02:15:56.464Z,8.70
2018-07-21T02:16:56.456Z,8.30
2018-07-21T02:17:56.455Z,8.40
2018-07-21T02:18:56.429Z,8.20
2018-07-21T02:19:56.420Z,8.70
2018-07-21T02:20:56.409Z,8.20
2018-07-21T02:21:56.401Z,8.60
2018-07-21T02:22:56.413Z,8.00
2018-07-21T02:23:56.377Z,8.40
2018-07-21T02:24:56.365Z,8.20
2018-07-21T02:25:56.355Z,8.30
2018-07-21T02:26:56.345Z,7.90
2018-07-21T02:27:56.336Z,7.80
2018-07-21T02:28:56.338Z,8.10
2018-07-21T02:29:56.314Z,7.60
2018-07-21T02:30:56.302Z,8.20
2018-07-21T02:31:56.291Z,7.70
2018-07-21T02:32:56.293Z,7.50
2018-07-21T02:33:56.268Z,7.20
2018-07-21T02:34:56.257Z,7.50
2018-07-21T02:35:56.248Z,7.70
2018-07-21T02:36:56.252Z,7.60
2018-07-21T02:37:56.244Z,7.40
2018-07-21T02:38:56.233Z,7.60
2018-07-21T02:39:56.207Z,7.90
2018-07-21T02:40:56.192Z,7.90
2018-07-21T02:41:56.184Z,7.50
2018-07-21T02:42:56.186Z,7.30
2018-07-21T02:43:56.165Z,7.90
2018-07-21T02:44:56.162Z,7.30
2018-07-21T02:45:56.140Z,7.10
2018-07-21T02:46:56.126Z,7.20
2018-07-21T02:47:56.133Z,7.50
2018-07-21T02:48:56.104Z,7.50
2018-07-21T02:49:56.095Z,7.10
2018-07-21T02:50:56.098Z,6.90
2018-07-21T02:51:56.073Z,7.30
2018-07-21T02:52:56.062Z,6.80
2018-07-21T02:53:56.067Z,6.70
2018-07-21T02:54:56.041Z,7.40
2018-07-21T02:55:56.028Z,7.30
2018-07-21T02:56:56.018Z,7.00
2018-07-21T02:57:56.011Z,7.10
2018-07-21T02:58:55.999Z,6.70
2018-07-21T02:59:56.001Z,7.10
2018-07-21T03:00:55.982Z,7.00
2018-07-21T03:01:55.984Z,6.60
2018-07-21T03:02:55.955Z,6.70
2018-07-21T03:03:55.946Z,6.90
2018-07-21T03:04:55.935Z,7.00
2018-07-21T03:05:55.920Z,7.10
2018-07-21T03:06:55.911Z,6.70
2018-07-21T03:07:55.922Z,7.40
2018-07-21T03:08:55.887Z,7.30
2018-07-21T03:09:55.907Z,7.00
2018-07-21T03:10:55.866Z,6.70
2018-07-21T03:11:55.856Z,6.80
2018-07-21T03:12:55.847Z,6.90
2018-07-21T03:13:55.851Z,6.90
2018-07-21T03:14:55.827Z,6.80
2018-07-21T03:15:55.815Z,6.60
2018-07-21T03:16:55.805Z,7.00
2018-07-21T03:17:55.793Z,6.50
2018-07-21T03:18:55.810Z,6.70
2018-07-21T03:19:55.772Z,7.10
2018-07-21T03:20:55.759Z,6.90
2018-07-21T03:21:55.754Z,6.70
2018-07-21T03:22:55.743Z,6.80
2018-07-21T03:23:55.726Z,6.70
2018-07-21T03:24:55.742Z,7.00
2018-07-21T03:25:55.704Z,6.70
2018-07-21T03:26:55.707Z,6.90
2018-07-21T03:27:55.686Z,6.60
2018-07-21T03:28:55.674Z,6.90
2018-07-21T03:29:55.673Z,7.40
2018-07-21T03:30:55.709Z,6.90
2018-07-21T03:31:55.641Z,6.40
2018-07-21T03:32:55.632Z,6.70
2018-07-21T03:33:55.619Z,6.30
2018-07-21T03:34:55.623Z,7.40
2018-07-21T03:35:55.598Z,7.10
2018-07-21T03:36:55.584Z,7.20
2018-07-21T03:37:55.574Z,6.70
2018-07-21T03:38:55.564Z,6.80
2018-07-21T03:39:55.567Z,7.00
2018-07-21T03:40:55.541Z,6.60
2018-07-21T03:41:55.540Z,6.60
2018-07-21T03:42:55.520Z,7.10
2018-07-21T03:43:55.511Z,6.80
2018-07-21T03:44:55.519Z,6.60
2018-07-21T03:45:55.486Z,7.10
2018-07-21T03:46:55.484Z,7.70
2018-07-21T03:47:55.468Z,7.00
2018-07-21T03:48:55.457Z,7.40
2018-07-21T03:49:55.444Z,7.10
2018-07-21T03:50:55.457Z,7.00
2018-07-21T03:51:55.425Z,7.10
2018-07-21T03:52:55.413Z,7.20
2018-07-21T03:53:55.403Z,6.80
2018-07-21T03:54:55.390Z,7.00
2018-07-21T03:55:55.381Z,6.50
2018-07-21T03:56:55.383Z,7.00
2018-07-21T03:57:55.358Z,7.40
2018-07-21T03:58:55.349Z,6.90
2018-07-21T03:59:55.335Z,7.00
2018-07-21T04:00:55.325Z,7.00
2018-07-21T04:01:55.326Z,7.30
2018-07-21T04:02:55.306Z,7.00
2018-07-21T04:03:55.294Z,7.40
2018-07-21T04:04:55.280Z,7.10
2018-07-21T04:05:55.287Z,7.30
2018-07-21T04:06:55.299Z,7.40
2018-07-21T04:07:55.249Z,6.90
2018-07-21T04:08:55.265Z,7.90
2018-07-21T04:09:55.229Z,7.20
2018-07-21T04:10:55.221Z,6.70
2018-07-21T04:11:55.206Z,7.10
2018-07-21T04:12:55.209Z,7.10
2018-07-21T04:13:55.187Z,7.80
2018-07-21T04:14:55.179Z,7.60
2018-07-21T04:15:55.180Z,7.50
2018-07-21T04:16:55.152Z,7.50
2018-07-21T04:17:55.143Z,6.70
2018-07-21T04:18:55.131Z,7.00
2018-07-21T04:19:55.120Z,7.90
2018-07-21T04:20:55.111Z,7.90
2018-07-21T04:21:55.115Z,7.40
2018-07-21T04:22:55.087Z,7.50
2018-07-21T04:23:55.118Z,7.40
2018-07-21T04:24:55.064Z,7.40
2018-07-21T04:25:55.057Z,7.50
2018-07-21T04:26:55.047Z,7.90
2018-07-21T04:27:55.034Z,7.10
2018-07-21T04:28:55.021Z,7.30
2018-07-21T04:29:55.027Z,7.50
2018-07-21T04:30:55.014Z,6.70
2018-07-21T04:31:54.987Z,7.60
2018-07-21T04:32:54.977Z,7.90
2018-07-21T04:33:54.968Z,7.40
2018-07-21T04:34:54.962Z,8.10
2018-07-21T04:35:54.990Z,8.00
2018-07-21T04:36:54.935Z,7.50
2018-07-21T04:37:54.927Z,8.00
2018-07-21T04:38:54.914Z,7.10
2018-07-21T04:39:54.906Z,7.60
2018-07-21T04:40:54.892Z,7.30
2018-07-21T04:41:54.896Z,7.10
2018-07-21T04:42:54.873Z,7.90
2018-07-21T04:43:54.861Z,7.80
2018-07-21T04:44:54.848Z,7.50
2018-07-21T04:45:54.837Z,7.40
2018-07-21T04:46:54.851Z,7.40
2018-07-21T04:47:54.816Z,7.60
2018-07-21T04:48:54.805Z,7.60
2018-07-21T04:49:54.797Z,7.70
2018-07-21T04:50:54.782Z,8.10
2018-07-21T04:51:54.777Z,7.60
2018-07-21T04:52:54.775Z,7.60
2018-07-21T04:53:54.812Z,7.40
2018-07-21T04:54:54.738Z,7.50
2018-07-21T04:55:54.732Z,7.20
2018-07-21T04:56:54.730Z,7.10
2018-07-21T04:57:54.711Z,6.80
2018-07-21T04:58:54.711Z,7.70
2018-07-21T04:59:54.688Z,7.20
2018-07-21T05:00:54.737Z,7.50
2018-07-21T05:01:54.680Z,7.00
2018-07-21T05:02:54.652Z,7.80
2018-07-21T05:03:54.667Z,7.00
2018-07-21T05:04:54.631Z,6.90
2018-07-21T05:05:54.618Z,7.00
2018-07-21T05:06:54.612Z,7.40
2018-07-21T05:07:54.599Z,7.50
2018-07-21T05:08:54.587Z,7.70
2018-07-21T05:09:54.614Z,7.10
2018-07-21T05:10:54.568Z,7.60
2018-07-21T05:11:54.554Z,7.10
2018-07-21T05:12:54.544Z,7.30
2018-07-21T05:13:54.540Z,8.00
2018-07-21T05:14:54.523Z,7.20
2018-07-21T05:15:54.526Z,7.20
2018-07-21T05:16:54.503Z,7.00
2018-07-21T05:17:54.499Z,7.40
2018-07-21T05:18:54.491Z,7.40
2018-07-21T05:19:54.476Z,7.00
2018-07-21T05:20:54.459Z,7.20
2018-07-21T05:21:54.448Z,7.00
2018-07-21T05:22:54.448Z,6.80
2018-07-21T05:23:54.426Z,7.70
2018-07-21T05:24:54.415Z,7.30
2018-07-21T05:25:54.403Z,7.40
2018-07-21T05:26:54.394Z,7.10
2018-07-21T05:27:54.407Z,7.50
2018-07-21T05:28:54.373Z,7.30
2018-07-21T05:29:54.362Z,7.20
2018-07-21T05:30:54.349Z,6.50
2018-07-21T05:31:54.340Z,7.10
2018-07-21T05:32:54.333Z,6.90
2018-07-21T05:33:54.330Z,6.60
2018-07-21T05:34:54.306Z,6.90
2018-07-21T05:35:54.296Z,6.60
2018-07-21T05:36:54.283Z,7.00
2018-07-21T05:37:54.273Z,6.80
2018-07-21T05:38:54.279Z,6.40
2018-07-21T05:39:54.252Z,6.10
2018-07-21T05:40:54.243Z,6.50
2018-07-21T05:41:54.229Z,6.60
2018-07-21T05:42:54.235Z,6.50
2018-07-21T05:43:54.207Z,6.40
2018-07-21T05:44:54.200Z,6.50
2018-07-21T05:45:54.185Z,6.10
2018-07-21T05:46:54.181Z,6.60
2018-07-21T05:47:54.206Z,6.40
2018-07-21T05:48:54.152Z,6.50
2018-07-21T05:49:54.142Z,6.50
2018-07-21T05:50:54.132Z,6.40
2018-07-21T05:51:54.122Z,5.80
2018-07-21T05:52:54.112Z,6.20
2018-07-21T05:53:54.110Z,6.50
2018-07-21T05:54:54.107Z,6.00
2018-07-21T05:55:54.079Z,6.80
2018-07-21T05:56:54.068Z,6.50
2018-07-21T05:57:54.056Z,6.20
2018-07-21T05:58:54.045Z,5.90
2018-07-21T05:59:54.040Z,6.10
2018-07-21T06:00:54.037Z,6.60
2018-07-21T06:01:54.015Z,6.40
2018-07-21T06:02:54.093Z,6.10
2018-07-21T06:03:53.990Z,6.40
2018-07-21T06:04:53.979Z,6.20
2018-07-21T06:05:53.983Z,6.30
2018-07-21T06:06:53.960Z,6.00
2018-07-21T06:07:53.948Z,6.20
2018-07-21T06:08:53.938Z,6.60
2018-07-21T06:09:53.927Z,6.70
2018-07-21T06:10:53.932Z,6.40
2018-07-21T06:11:53.903Z,6.80
2018-07-21T06:12:53.907Z,5.90
2018-07-21T06:13:53.883Z,6.50
2018-07-21T06:14:53.871Z,5.90
2018-07-21T06:15:53.885Z,6.60
2018-07-21T06:16:53.856Z,6.40
2018-07-21T06:17:53.839Z,6.60
2018-07-21T06:18:53.831Z,6.30
2018-07-21T06:19:53.820Z,6.40
2018-07-21T06:20:53.807Z,5.80
2018-07-21T06:21:53.812Z,6.20
2018-07-21T06:22:53.786Z,6.30
2018-07-21T06:23:53.776Z,5.90
2018-07-21T06:24:53.764Z,6.30
2018-07-21T06:25:53.756Z,6.50
2018-07-21T06:26:53.755Z,6.40
2018-07-21T06:27:53.731Z,6.20
2018-07-21T06:28:53.735Z,6.50
2018-07-21T06:29:53.709Z,6.70
2018-07-21T06:30:53.699Z,6.40
2018-07-21T06:31:53.704Z,6.20
2018-07-21T06:32:53.731Z,6.90
2018-07-21T06:33:53.667Z,6.60
2018-07-21T06:34:53.698Z,6.70
2018-07-21T06:35:53.646Z,6.50
2018-07-21T06:36:53.634Z,7.00
2018-07-21T06:37:53.629Z,7.20
2018-07-21T06:38:53.614Z,6.60
2018-07-21T06:39:53.604Z,6.20
2018-07-21T06:40:53.628Z,6.70
2018-07-21T06:41:53.579Z,6.70
2018-07-21T06:42:53.568Z,6.30
2018-07-21T06:43:53.565Z,6.80
2018-07-21T06:44:53.549Z,6.70
2018-07-21T06:45:53.537Z,7.00
2018-07-21T06:46:53.563Z,6.50
2018-07-21T06:47:53.514Z,6.50
2018-07-21T06:48:53.503Z,7.00
2018-07-21T06:49:53.492Z,6.40
2018-07-21T06:50:53.480Z,6.30
2018-07-21T06:51:53.471Z,5.80
2018-07-21T06:52:53.472Z,6.50
2018-07-21T06:53:53.487Z,6.30
2018-07-21T06:54:53.436Z,6.50
2018-07-21T06:55:53.425Z,6.00
2018-07-21T06:56:53.417Z,6.80
2018-07-21T06:57:53.404Z,6.60
2018-07-21T06:58:53.400Z,6.40
2018-07-21T06:59:53.426Z,6.40
2018-07-21T07:00:53.371Z,7.20
2018-07-21T07:01:53.361Z,7.40
2018-07-21T07:02:53.351Z,7.40
2018-07-21T07:03:53.341Z,7.40
2018-07-21T07:04:53.336Z,8.10
2018-07-21T07:05:53.329Z,8.30
2018-07-21T07:06:53.307Z,9.30
2018-07-21T07:07:53.299Z,9.30
2018-07-21T07:08:53.327Z,10.30
2018-07-21T07:09:53.274Z,10.20
2018-07-21T07:10:53.263Z,11.50
2018-07-21T07:11:53.252Z,12.60
2018-07-21T07:12:53.243Z,13.20
2018-07-21T07:13:53.228Z,14.30
2018-07-21T07:14:53.241Z,15.10
2018-07-21T07:15:53.211Z,14.40
2018-07-21T07:16:53.198Z,15.70
2018-07-21T07:17:53.190Z,14.70
2018-07-21T07:18:53.176Z,16.00
2018-07-21T07:19:53.168Z,15.60
2018-07-21T07:20:53.170Z,16.60
2018-07-21T07:21:53.145Z,17.00
2018-07-21T07:22:53.134Z,19.20
2018-07-21T07:23:53.125Z,20.20
2018-07-21T07:24:53.127Z,19.50
2018-07-21T07:25:53.101Z,18.70
2018-07-21T07:26:53.093Z,19.40
2018-07-21T07:27:53.081Z,21.70
2018-07-21T07:28:53.071Z,21.80
2018-07-21T07:29:53.074Z,22.40
2018-07-21T07:30:53.047Z,21.40
2018-07-21T07:31:53.036Z,21.60
2018-07-21T07:32:53.027Z,24.30
2018-07-21T07:33:53.016Z,21.50
2018-07-21T07:34:53.018Z,21.90
2018-07-21T07:35:52.997Z,23.60
2018-07-21T07:36:52.984Z,20.70
2018-07-21T07:37:52.972Z,23.40
2018-07-21T07:38:52.961Z,23.60
2018-07-21T07:39:52.999Z,23.30
2018-07-21T07:40:52.942Z,21.50
2018-07-21T07:41:52.931Z,20.80
2018-07-21T07:42:52.919Z,22.20
2018-07-21T07:43:52.910Z,21.50
2018-07-21T07:44:52.897Z,22.70
2018-07-21T07:45:52.900Z,23.10
2018-07-21T07:46:52.878Z,24.70
2018-07-21T07:47:52.866Z,24.80
2018-07-21T07:48:52.855Z,24.80
2018-07-21T07:49:52.847Z,22.60
2018-07-21T07:50:52.847Z,23.50
2018-07-21T07:51:52.843Z,24.30
2018-07-21T07:52:52.815Z,23.40
2018-07-21T07:53:52.802Z,25.80
2018-07-21T07:54:52.792Z,25.10
2018-07-21T07:55:52.780Z,23.70
2018-07-21T07:56:52.771Z,24.80
2018-07-21T07:57:52.769Z,23.30
2018-07-21T07:58:52.748Z,24.70
2018-07-21T07:59:52.738Z,24.40
2018-07-21T08:00:52.728Z,24.60
2018-07-21T08:01:52.719Z,21.10
2018-07-21T08:02:52.717Z,21.30
2018-07-21T08:03:52.691Z,23.60
2018-07-21T08:04:52.682Z,23.40
2018-07-21T08:05:52.674Z,24.80
2018-07-21T08:06:52.681Z,22.40
2018-07-21T08:07:52.649Z,23.70
2018-07-21T08:08:52.641Z,23.60
2018-07-21T08:09:52.630Z,23.60
2018-07-21T08:10:52.620Z,26.00
2018-07-21T08:11:52.631Z,25.90
2018-07-21T08:12:52.615Z,26.40
2018-07-21T08:13:52.595Z,27.00
2018-07-21T08:14:52.575Z,25.60
2018-07-21T08:15:52.563Z,25.50
2018-07-21T08:16:52.567Z,25.30
2018-07-21T08:17:52.541Z,25.80
2018-07-21T08:18:52.531Z,23.90
2018-07-21T08:19:52.539Z,22.90
2018-07-21T08:20:52.512Z,22.40
2018-07-21T08:21:52.504Z,23.10
2018-07-21T08:22:52.491Z,23.20
2018-07-21T08:23:52.478Z,23.60
2018-07-21T08:24:52.469Z,22.70
2018-07-21T08:25:52.471Z,25.40
2018-07-21T08:26:52.444Z,23.90
2018-07-21T08:27:52.434Z,23.50
2018-07-21T08:28:52.423Z,21.30
2018-07-21T08:29:52.414Z,22.10
2018-07-21T08:30:52.442Z,20.20
2018-07-21T08:31:52.391Z,21.00
2018-07-21T08:32:52.380Z,20.00
2018-07-21T08:33:52.370Z,21.10
2018-07-21T08:34:52.362Z,20.70
2018-07-21T08:35:52.347Z,20.30
2018-07-21T08:36:52.352Z,20.70
2018-07-21T08:37:52.327Z,20.80
2018-07-21T08:38:52.314Z,19.50
2018-07-21T08:39:52.306Z,19.90
2018-07-21T08:40:52.296Z,20.90
2018-07-21T08:41:52.298Z,20.90
2018-07-21T08:42:52.271Z,22.40
2018-07-21T08:43:52.259Z,21.40
2018-07-21T08:44:52.249Z,20.10
2018-07-21T08:45:52.240Z,19.30
2018-07-21T08:46:52.254Z,19.90
2018-07-21T08:47:52.219Z,19.40
2018-07-21T08:48:52.207Z,19.80
2018-07-21T08:49:52.250Z,19.10
2018-07-21T08:50:52.189Z,19.60
2018-07-21T08:51:52.175Z,20.00
2018-07-21T08:52:52.177Z,19.30
2018-07-21T08:53:52.153Z,18.80
2018-07-21T08:54:52.155Z,18.70
2018-07-21T08:55:52.192Z,18.90
2018-07-21T08:56:52.137Z,19.30
2018-07-21T08:57:52.128Z,17.50
2018-07-21T08:58:52.104Z,18.30
2018-07-21T08:59:52.092Z,18.70
2018-07-21T09:00:52.080Z,18.80
2018-07-21T09:01:52.082Z,19.40
2018-07-21T09:02:52.078Z,18.90
2018-07-21T09:03:52.048Z,19.60
2018-07-21T09:04:52.036Z,19.10
2018-07-21T09:05:52.059Z,17.70
2018-07-21T09:06:52.013Z,18.70
2018-07-21T09:07:52.004Z,18.60
2018-07-21T09:08:52.008Z,18.10
2018-07-21T09:09:51.996Z,18.10
2018-07-21T09:10:51.971Z,18.60
2018-07-21T09:11:51.966Z,17.60
2018-07-21T09:12:51.954Z,17.80
2018-07-21T09:13:51.939Z,18.00
2018-07-21T09:14:51.944Z,17.50
2018-07-21T09:15:51.919Z,16.70
2018-07-21T09:16:51.908Z,17.70
2018-07-21T09:17:51.901Z,16.60
2018-07-21T09:18:51.890Z,17.50
2018-07-21T09:19:51.895Z,17.50
2018-07-21T09:20:51.869Z,16.40
2018-07-21T09:21:51.867Z,16.80
2018-07-21T09:22:51.845Z,16.70
2018-07-21T09:23:51.834Z,17.00
2018-07-21T09:24:51.826Z,16.70
2018-07-21T09:25:51.853Z,16.10
2018-07-21T09:26:51.834Z,15.70
2018-07-21T09:27:51.793Z,15.90
2018-07-21T09:28:51.785Z,15.40
2018-07-21T09:29:51.775Z,15.60
2018-07-21T09:30:51.762Z,15.30
2018-07-21T09:31:51.766Z,16.80
2018-07-21T09:32:51.745Z,17.10
2018-07-21T09:33:51.732Z,17.60
2018-07-21T09:34:51.739Z,19.10
2018-07-21T09:35:51.724Z,19.60
2018-07-21T09:36:51.702Z,19.10
2018-07-21T09:37:51.707Z,19.40
2018-07-21T09:38:51.680Z,18.90
2018-07-21T09:39:51.668Z,19.60
2018-07-21T09:40:51.658Z,18.30
2018-07-21T09:41:51.648Z,16.90
2018-07-21T09:42:51.637Z,18.10
2018-07-21T09:43:51.638Z,18.00
2018-07-21T09:44:51.614Z,17.20
2018-07-21T09:45:51.604Z,18.30
2018-07-21T09:46:51.596Z,17.30
2018-07-21T09:47:51.586Z,17.70
2018-07-21T09:48:51.586Z,18.10
2018-07-21T09:49:51.561Z,17.70
2018-07-21T09:50:51.555Z,17.60
2018-07-21T09:51:51.544Z,17.50
2018-07-21T09:52:51.554Z,18.60
2018-07-21T09:53:51.522Z,17.40
2018-07-21T09:54:51.510Z,17.60
2018-07-21T09:55:51.567Z,17.40
2018-07-21T09:56:51.490Z,17.00
2018-07-21T09:57:51.495Z,16.70
2018-07-21T09:58:51.468Z,16.70
2018-07-21T09:59:51.460Z,18.10
2018-07-21T10:00:51.457Z,18.60
2018-07-21T10:01:51.439Z,18.60
2018-07-21T10:02:51.427Z,17.20
2018-07-21T10:03:51.428Z,19.10
2018-07-21T10:04:51.408Z,17.00
2018-07-21T10:05:51.399Z,18.90
2018-07-21T10:06:51.388Z,19.80
2018-07-21T10:07:51.407Z,20.50
2018-07-21T10:08:51.367Z,20.70
2018-07-21T10:09:51.356Z,20.10
2018-07-21T10:10:51.344Z,20.10
2018-07-21T10:11:51.333Z,19.50
2018-07-21T10:12:51.325Z,19.00
2018-07-21T10:13:51.330Z,18.70
2018-07-21T10:14:51.305Z,18.70
2018-07-21T10:15:51.296Z,19.40
2018-07-21T10:16:51.284Z,19.40
2018-07-21T10:17:51.275Z,19.40
2018-07-21T10:18:51.271Z,19.70
2018-07-21T10:19:51.264Z,19.30
2018-07-21T10:20:51.240Z,19.90
2018-07-21T10:21:51.238Z,19.30
2018-07-21T10:22:51.228Z,20.60
2018-07-21T10:23:51.212Z,19.10
2018-07-21T10:24:51.218Z,34.50
2018-07-21T10:25:51.188Z,43.50
2018-07-21T10:26:51.178Z,243.30
2018-07-21T10:27:51.168Z,266.70
2018-07-21T10:28:51.172Z,29.00
2018-07-21T10:29:51.173Z,24.70
2018-07-21T10:30:51.137Z,22.90
2018-07-21T10:31:51.127Z,37.50
2018-07-21T10:32:51.123Z,39.90
2018-07-21T10:33:51.104Z,24.20
2018-07-21T10:34:51.098Z,24.70
2018-07-21T10:35:51.107Z,21.90
2018-07-21T10:36:51.077Z,20.30
2018-07-21T10:37:51.068Z,19.20
2018-07-21T10:38:51.055Z,19.50
2018-07-21T10:39:51.072Z,18.90
2018-07-21T10:40:51.032Z,17.90
2018-07-21T10:41:51.023Z,21.80
2018-07-21T10:42:51.015Z,19.60
2018-07-21T10:43:51.004Z,18.80
2018-07-21T10:44:50.992Z,18.20
2018-07-21T10:45:50.998Z,18.50
2018-07-21T10:46:50.973Z,125.30
2018-07-21T10:47:50.979Z,267.40
2018-07-21T10:48:50.954Z,57.70
2018-07-21T10:49:50.941Z,46.90
2018-07-21T10:50:51.028Z,22.00
2018-07-21T10:51:50.920Z,27.70
2018-07-21T10:52:50.913Z,43.60
2018-07-21T10:53:50.909Z,37.70
2018-07-21T10:54:50.889Z,35.10
2018-07-21T10:55:50.906Z,23.50
2018-07-21T10:56:50.868Z,21.20
2018-07-21T10:57:50.860Z,21.30
2018-07-21T10:58:50.850Z,22.60
2018-07-21T10:59:50.838Z,21.30
2018-07-21T11:00:50.826Z,19.70
2018-07-21T11:01:50.832Z,20.50
2018-07-21T11:02:50.815Z,20.20
2018-07-21T11:03:50.798Z,20.10
2018-07-21T11:04:50.785Z,20.90
2018-07-21T11:05:50.779Z,19.20
2018-07-21T11:06:50.777Z,19.40
2018-07-21T11:07:50.755Z,19.30
2018-07-21T11:08:50.746Z,20.80
2018-07-21T11:09:50.733Z,18.70
2018-07-21T11:10:50.770Z,19.10
2018-07-21T11:11:50.734Z,18.30
2018-07-21T11:12:50.736Z,19.60
2018-07-21T11:13:50.690Z,19.20
2018-07-21T11:14:50.684Z,18.60
2018-07-21T11:15:50.673Z,18.40
2018-07-21T11:16:50.662Z,18.90
2018-07-21T11:17:50.652Z,19.20
2018-07-21T11:18:50.649Z,18.90
2018-07-21T11:19:50.629Z,19.30
2018-07-21T11:20:50.617Z,19.10
2018-07-21T11:21:50.683Z,18.10
2018-07-21T11:22:50.600Z,19.10
2018-07-21T11:23:50.586Z,18.30
2018-07-21T11:24:50.583Z,19.50
2018-07-21T11:25:50.569Z,18.70
2018-07-21T11:26:50.555Z,18.60
2018-07-21T11:27:50.563Z,19.40
2018-07-21T11:28:50.536Z,20.70
2018-07-21T11:29:50.527Z,18.40
2018-07-21T11:30:50.512Z,19.30
2018-07-21T11:31:50.503Z,18.80
2018-07-21T11:32:50.494Z,19.10
2018-07-21T11:33:50.495Z,18.60
2018-07-21T11:34:50.475Z,18.60
2018-07-21T11:35:50.659Z,18.00
2018-07-21T11:36:50.453Z,18.70
2018-07-21T11:37:50.460Z,19.80
2018-07-21T11:38:50.436Z,18.80
2018-07-21T11:39:50.418Z,19.80
2018-07-21T11:40:50.409Z,19.60
2018-07-21T11:41:50.396Z,19.90
2018-07-21T11:42:50.385Z,18.00
2018-07-21T11:43:50.389Z,18.20
2018-07-21T11:44:50.365Z,18.90
2018-07-21T11:45:50.357Z,18.70
2018-07-21T11:46:50.343Z,19.00
2018-07-21T11:47:50.332Z,20.40
2018-07-21T11:48:50.334Z,20.20
2018-07-21T11:49:50.314Z,19.70
2018-07-21T11:50:50.301Z,18.90
2018-07-21T11:51:50.314Z,20.10
2018-07-21T11:52:50.299Z,19.30
2018-07-21T11:53:50.268Z,20.00
2018-07-21T11:54:50.263Z,20.20
2018-07-21T11:55:50.247Z,20.00
2018-07-21T11:56:50.240Z,20.80
2018-07-21T11:57:50.227Z,19.40
2018-07-21T11:58:50.232Z,17.70
2018-07-21T11:59:50.209Z,17.70
2018-07-21T12:00:50.197Z,16.90
2018-07-21T12:01:50.238Z,15.80
2018-07-21T12:02:50.178Z,16.40
2018-07-21T12:03:50.165Z,15.50
2018-07-21T12:04:50.166Z,15.30
2018-07-21T12:05:50.143Z,14.60
2018-07-21T12:06:50.131Z,15.00
2018-07-21T12:07:50.121Z,15.10
2018-07-21T12:08:50.120Z,14.10
2018-07-21T12:09:50.103Z,14.70
2018-07-21T12:10:50.090Z,14.50
2018-07-21T12:11:50.098Z,14.50
2018-07-21T12:12:50.068Z,15.20
2018-07-21T12:13:50.057Z,14.30
2018-07-21T12:14:50.048Z,13.80
2018-07-21T12:15:50.040Z,14.50
2018-07-21T12:16:50.025Z,14.00
2018-07-21T12:17:50.035Z,13.10
2018-07-21T12:18:50.005Z,13.30
2018-07-21T12:19:49.993Z,13.10
2018-07-21T12:20:50.000Z,12.60
2018-07-21T12:21:49.973Z,13.10
2018-07-21T12:22:49.961Z,11.80
2018-07-21T12:23:49.965Z,13.50
2018-07-21T12:24:49.940Z,13.50
2018-07-21T12:25:49.933Z,12.50
2018-07-21T12:26:49.924Z,12.60
2018-07-21T12:27:49.910Z,12.60
2018-07-21T12:28:49.912Z,12.50
2018-07-21T12:29:49.891Z,12.90
2018-07-21T12:30:49.880Z,11.70
2018-07-21T12:31:49.870Z,13.10
2018-07-21T12:32:49.872Z,12.30
2018-07-21T12:33:49.847Z,13.20
2018-07-21T12:34:49.837Z,12.70
2018-07-21T12:35:49.828Z,13.20
2018-07-21T12:36:49.828Z,13.00
2018-07-21T12:37:49.808Z,12.90
2018-07-21T12:38:49.796Z,12.60
2018-07-21T12:39:49.785Z,13.10
2018-07-21T12:40:49.796Z,14.00
2018-07-21T12:41:49.769Z,13.10
2018-07-21T12:42:49.767Z,13.30
2018-07-21T12:43:49.743Z,14.40
2018-07-21T12:44:49.804Z,14.80
2018-07-21T12:45:49.726Z,14.90
2018-07-21T12:46:49.719Z,15.10
2018-07-21T12:47:49.705Z,15.10
2018-07-21T12:48:49.694Z,14.50
2018-07-21T12:49:49.683Z,14.60
2018-07-21T12:50:49.688Z,14.60
2018-07-21T12:51:49.662Z,15.60
2018-07-21T12:52:49.652Z,12.90
2018-07-21T12:53:49.640Z,13.80
2018-07-21T12:54:49.635Z,13.30
2018-07-21T12:55:49.649Z,14.90
2018-07-21T12:56:49.610Z,15.10
2018-07-21T12:57:49.603Z,15.00
2018-07-21T12:58:49.589Z,14.80
2018-07-21T12:59:49.582Z,14.10
2018-07-21T13:00:49.571Z,15.50
2018-07-21T13:01:49.578Z,15.00
2018-07-21T13:02:49.549Z,14.60
2018-07-21T13:03:49.537Z,15.50
2018-07-21T13:04:49.528Z,16.30
2018-07-21T13:05:49.516Z,16.80
2018-07-21T13:06:49.528Z,14.30